Moorland, Iowa
Current Conditions -  °F | °C
As of 5:55 AM on Thursday 27 Nov 2014 (Local Time) from KFOD Reporting Station
Clear Clear  
Wind Chill: -14°   Ceiling: Unl
Heat Index: -2°   Visibility: 10mi
Dew Point: -11°   Wind: 6mph
Humidity: 66%   Direction: 320°NW
Pressure: 30.5"   Gusts: NA
Location:  42.44°N, 94.29°W
Report Text: KFOD 271155Z AUTO 32005KT 10SM CLR M19/M24 A3050 RMK AO1 70002 11100 21190 52014
Loading
Personal Weather Stations






























Interactive Weather Map New forecast layout! Learn more

10-Day Weather Forecast

Advertisements
Track Severe Weather on mobile